Terminal Aerodrome Forecast
Issued by NWS

Home | Current Version | Previous Version | Text Only | Print | Product List | Glossary On
Versions: 1 2 3 4 5 6 7 8 9 10 11 12 13 14 15 16
352
FTUS41 KPBZ 081504 AAA
TAFHLG
TAF AMD
KHLG 081504Z 0815/0912 15005KT P6SM BKN100
     FM081800 21005KT P6SM -RA OVC035
     FM082000 25005KT 3SM -RASN OVC015
     FM082200 23005KT P6SM VCSH OVC025
     FM090600 28005KT 5SM -SHSN OVC015=

USA.gov is the U.S. government's official web portal to all federal, state and local government web resources and services.